Aérodrome :
LOGIN :

S'inscrire | Disclaimer

   EN    FR    IT 

 










Légende :    VFR   VFR Marginal   IFR   IFR Intensif   IFR Très Intensif
Visi : 
Plafond : 
>= 8 km
>= 3000ft
5 à 8 km
1000 à 3000 ft
1500m à 5 km
500 à 1000 ft
800 à 1500m
200 à 500 ft
< 800m
< 200 ft
Symboles :   Orages  Brouillard  Fortes neiges  Fortes précipitations  Vent > 20 kt
SIGMETs :   Divers  Orages  Givrage  Turbulence  Onde Orograph.  Cendres Volcan.






- Altitude de l'aérodrome : 257 ft
- Code IATA : MAN


EGCC - Manchester

DERNIER METAR :
  • 172050Z 23011KT 9999 FEW042 04/M00 Q1010 NOSIG

METARs EXPIRÉS :
  • 172020Z 22010KT 9999 FEW048 04/01 Q1010
  • 171950Z 23011KT 9999 SCT037 04/01 Q1010
  • 171920Z 23009KT 9999 SCT037 04/01 Q1009 TEMPO SHRA
  • 171850Z 24013KT 9999 FEW043 05/01 Q1009 TEMPO SHRA
  • 171820Z 23013KT 9999 VCSH FEW026CB 05/02 Q1008 RESHRA TEMPO SHRA

TAF TAF EGCC
Valide du 17 à 18h jusqu'au 19 à 00h UTC


171659Z 1718/1824 24014KT 9999 SCT030
TEMPO 1718/1724 27017G27KT 7000 SHRA
PROB30
TEMPO 1806/1812 8000 SHRA
TEMPO 1812/1818 7000 SHRA
PROB30
TEMPO 1812/1818 23015G25KT 4000 +SHRA BKN014
PROB30
TEMPO 1818/1824 7000 SHRA
ATIS : +44 161 499 2324



MET'MAP, la Météo Aéronautique d'un coup d'oeil ! - Copyright ORBIFLY Décembre 2007 - Disclaimer

ORBIFLY MET'MAP TEAM :

Programmation & Développement : Alexandra Zaïnal
Sur une idée originale de : Baudouin d'Aumeries
Assistance à la programmation : Marc-Olivier Méhu
Soutien technique & logistique : Manuel Goepfert

Contact : metmap@orbifly.com




SOURCES & CREDITS :

   NOAA